Kezdőlap
METAR-TAF:

METAR-TAF

Repülőterek :

North Central State Airport

Pawtucket, Rhode Island, Amerikai Egyesült Államok

földrajzi szélesség: 41-55N, földrajzi hosszúság: 071-30W, magasság: 134 m

Jelenlegi meteorológiai megfigyelések

A jelentés 38 perccel ezelõtt készült, 17:56 UTC
Nyugati szél 7 kt széllökések: 14 kt, délnyugati és nyugat-északnyugati között változik
Hőmérséklet 11°C
Páratartalom 28%
Légköri nyomás 1019 hPa
Látótávolság: 16.1 km
Derült ég

METAR: KSFZ 231756Z AUTO 26007G14KT 220V290 10SM CLR 11/M07 A3009 RMK AO2 SLP136 T01061072 10111 21006 58025

Idő: 13:34 (18:34 UTC)


TAF: hiányzik

Meteorológiai megfigyelések és előrejelzések több, mint 4000 repülőtéren (METAR és TAF jelentéseket).

A térképen piros és sárga pontok jelzik az elérhető meteorológiai állomásokat.

Mozgassa az egeret a pont fölött, hogy megjelenjen az állomás neve.

Azután kattintson az időjárási megfigyelések és előrejelzések megtekintéséhez.

A térkép megváltoztatása: kattintson a fekete keresztel jelölt zöld gombra ráközelítéshez, a vonallal jelölt zöld gombra távolításhoz, vagy a zöld nyilakra a szomszédos térképek eléréséhez.


METAR-TAF: